sensor_id;sensor_type;location;lat;lon;timestamp;P1;durP1;ratioP1;P2;durP2;ratioP2
850;SDS011;412;51.400;7.480;2023-04-06T00:01:35;14.13;;;10.57;;
850;SDS011;412;51.400;7.480;2023-04-06T00:04:01;15.97;;;10.97;;
850;SDS011;412;51.400;7.480;2023-04-06T00:06:27;11.50;;;10.30;;
850;SDS011;412;51.400;7.480;2023-04-06T00:08:52;14.10;;;10.97;;
850;SDS011;412;51.400;7.480;2023-04-06T00:11:18;12.77;;;10.53;;
850;SDS011;412;51.400;7.480;2023-04-06T00:13:45;11.50;;;10.40;;
850;SDS011;412;51.400;7.480;2023-04-06T00:16:10;13.57;;;10.07;;
850;SDS011;412;51.400;7.480;2023-04-06T00:18:36;11.93;;;10.23;;
850;SDS011;412;51.400;7.480;2023-04-06T00:21:02;11.50;;;10.30;;
850;SDS011;412;51.400;7.480;2023-04-06T00:23:28;13.10;;;10.50;;
850;SDS011;412;51.400;7.480;2023-04-06T00:25:54;12.00;;;9.50;;
850;SDS011;412;51.400;7.480;2023-04-06T00:28:20;12.10;;;9.67;;
850;SDS011;412;51.400;7.480;2023-04-06T00:30:50;15.77;;;10.40;;
850;SDS011;412;51.400;7.480;2023-04-06T00:33:18;14.27;;;10.65;;
850;SDS011;412;51.400;7.480;2023-04-06T00:35:44;11.40;;;9.50;;
850;SDS011;412;51.400;7.480;2023-04-06T00:38:11;11.07;;;9.33;;
850;SDS011;412;51.400;7.480;2023-04-06T00:40:37;13.43;;;10.60;;
850;SDS011;412;51.400;7.480;2023-04-06T00:43:07;12.37;;;10.60;;
850;SDS011;412;51.400;7.480;2023-04-06T00:45:37;12.27;;;9.60;;
850;SDS011;412;51.400;7.480;2023-04-06T00:48:04;13.40;;;9.93;;
850;SDS011;412;51.400;7.480;2023-04-06T00:50:31;12.90;;;9.73;;
850;SDS011;412;51.400;7.480;2023-04-06T00:52:57;11.17;;;9.97;;
850;SDS011;412;51.400;7.480;2023-04-06T00:55:23;12.33;;;10.40;;
850;SDS011;412;51.400;7.480;2023-04-06T00:57:49;13.57;;;10.27;;
850;SDS011;412;51.400;7.480;2023-04-06T01:00:16;12.03;;;10.30;;
850;SDS011;412;51.400;7.480;2023-04-06T01:02:42;12.30;;;10.63;;
850;SDS011;412;51.400;7.480;2023-04-06T01:05:10;15.87;;;11.47;;
850;SDS011;412;51.400;7.480;2023-04-06T01:07:39;11.63;;;10.43;;
850;SDS011;412;51.400;7.480;2023-04-06T01:10:05;13.90;;;11.00;;
850;SDS011;412;51.400;7.480;2023-04-06T01:12:31;11.40;;;10.00;;
850;SDS011;412;51.400;7.480;2023-04-06T01:14:57;16.03;;;11.77;;
850;SDS011;412;51.400;7.480;2023-04-06T01:17:23;13.67;;;11.53;;
850;SDS011;412;51.400;7.480;2023-04-06T01:19:48;16.00;;;11.00;;
850;SDS011;412;51.400;7.480;2023-04-06T01:22:18;13.20;;;10.60;;
850;SDS011;412;51.400;7.480;2023-04-06T01:24:44;15.73;;;11.40;;
850;SDS011;412;51.400;7.480;2023-04-06T01:27:10;13.37;;;10.67;;
850;SDS011;412;51.400;7.480;2023-04-06T01:29:36;13.00;;;10.77;;
850;SDS011;412;51.400;7.480;2023-04-06T01:32:02;14.60;;;11.07;;
850;SDS011;412;51.400;7.480;2023-04-06T01:34:28;16.03;;;12.20;;
850;SDS011;412;51.400;7.480;2023-04-06T01:36:54;16.53;;;12.33;;
850;SDS011;412;51.400;7.480;2023-04-06T01:39:20;13.50;;;12.10;;
850;SDS011;412;51.400;7.480;2023-04-06T01:41:46;14.67;;;11.80;;
850;SDS011;412;51.400;7.480;2023-04-06T01:44:12;14.87;;;11.60;;
850;SDS011;412;51.400;7.480;2023-04-06T01:46:41;14.57;;;12.10;;
850;SDS011;412;51.400;7.480;2023-04-06T01:49:07;15.47;;;12.27;;
850;SDS011;412;51.400;7.480;2023-04-06T01:51:32;15.30;;;12.33;;
850;SDS011;412;51.400;7.480;2023-04-06T01:53:58;14.63;;;11.77;;
850;SDS011;412;51.400;7.480;2023-04-06T01:56:24;13.93;;;12.47;;
850;SDS011;412;51.400;7.480;2023-04-06T01:58:50;14.50;;;12.10;;
850;SDS011;412;51.400;7.480;2023-04-06T02:01:16;14.20;;;11.67;;
850;SDS011;412;51.400;7.480;2023-04-06T02:03:42;15.50;;;11.00;;
850;SDS011;412;51.400;7.480;2023-04-06T02:06:07;13.90;;;12.00;;
850;SDS011;412;51.400;7.480;2023-04-06T02:08:33;17.90;;;12.50;;
850;SDS011;412;51.400;7.480;2023-04-06T02:10:59;13.97;;;11.70;;
850;SDS011;412;51.400;7.480;2023-04-06T02:13:25;18.87;;;12.60;;
850;SDS011;412;51.400;7.480;2023-04-06T02:15:51;17.10;;;12.27;;
850;SDS011;412;51.400;7.480;2023-04-06T02:18:17;17.20;;;13.20;;
850;SDS011;412;51.400;7.480;2023-04-06T02:20:43;17.75;;;12.43;;
850;SDS011;412;51.400;7.480;2023-04-06T02:23:10;16.88;;;12.63;;
850;SDS011;412;51.400;7.480;2023-04-06T02:25:36;16.37;;;12.70;;
850;SDS011;412;51.400;7.480;2023-04-06T02:28:02;14.93;;;11.97;;
850;SDS011;412;51.400;7.480;2023-04-06T02:30:28;14.57;;;13.02;;
850;SDS011;412;51.400;7.480;2023-04-06T02:32:54;18.50;;;12.13;;
850;SDS011;412;51.400;7.480;2023-04-06T02:35:20;13.55;;;10.95;;
850;SDS011;412;51.400;7.480;2023-04-06T02:37:46;13.57;;;11.10;;
850;SDS011;412;51.400;7.480;2023-04-06T02:40:13;14.87;;;11.80;;
850;SDS011;412;51.400;7.480;2023-04-06T02:42:39;12.95;;;10.85;;
850;SDS011;412;51.400;7.480;2023-04-06T02:45:05;14.47;;;12.00;;
850;SDS011;412;51.400;7.480;2023-04-06T02:47:32;16.88;;;11.77;;
850;SDS011;412;51.400;7.480;2023-04-06T02:49:58;21.73;;;12.07;;
850;SDS011;412;51.400;7.480;2023-04-06T02:52:24;15.50;;;11.77;;
850;SDS011;412;51.400;7.480;2023-04-06T02:54:50;13.60;;;11.10;;
850;SDS011;412;51.400;7.480;2023-04-06T02:57:16;12.55;;;11.10;;
850;SDS011;412;51.400;7.480;2023-04-06T02:59:42;13.35;;;10.43;;
850;SDS011;412;51.400;7.480;2023-04-06T03:02:08;14.23;;;11.20;;
850;SDS011;412;51.400;7.480;2023-04-06T03:04:33;16.10;;;12.73;;
850;SDS011;412;51.400;7.480;2023-04-06T03:06:59;16.90;;;11.90;;
850;SDS011;412;51.400;7.480;2023-04-06T03:09:25;14.45;;;11.82;;
850;SDS011;412;51.400;7.480;2023-04-06T03:11:52;16.70;;;11.65;;
850;SDS011;412;51.400;7.480;2023-04-06T03:14:18;14.50;;;11.07;;
850;SDS011;412;51.400;7.480;2023-04-06T03:16:47;13.80;;;11.27;;
850;SDS011;412;51.400;7.480;2023-04-06T03:19:13;14.05;;;12.50;;
850;SDS011;412;51.400;7.480;2023-04-06T03:21:40;14.05;;;11.55;;
850;SDS011;412;51.400;7.480;2023-04-06T03:24:06;15.25;;;12.35;;
850;SDS011;412;51.400;7.480;2023-04-06T03:26:33;15.10;;;11.55;;
850;SDS011;412;51.400;7.480;2023-04-06T03:28:58;18.47;;;13.87;;
850;SDS011;412;51.400;7.480;2023-04-06T03:31:25;14.63;;;12.07;;
850;SDS011;412;51.400;7.480;2023-04-06T03:33:51;15.93;;;12.50;;
850;SDS011;412;51.400;7.480;2023-04-06T03:36:17;17.87;;;12.67;;
850;SDS011;412;51.400;7.480;2023-04-06T03:38:42;13.70;;;12.27;;
850;SDS011;412;51.400;7.480;2023-04-06T03:41:08;17.93;;;14.63;;
850;SDS011;412;51.400;7.480;2023-04-06T03:43:34;15.90;;;11.40;;
850;SDS011;412;51.400;7.480;2023-04-06T03:46:00;15.30;;;12.00;;
850;SDS011;412;51.400;7.480;2023-04-06T03:48:26;13.43;;;12.03;;
850;SDS011;412;51.400;7.480;2023-04-06T03:50:52;15.47;;;11.87;;
850;SDS011;412;51.400;7.480;2023-04-06T03:53:17;15.20;;;11.90;;
850;SDS011;412;51.400;7.480;2023-04-06T03:55:43;18.30;;;11.70;;
850;SDS011;412;51.400;7.480;2023-04-06T03:58:09;13.60;;;12.07;;
850;SDS011;412;51.400;7.480;2023-04-06T04:00:35;13.67;;;11.70;;
850;SDS011;412;51.400;7.480;2023-04-06T04:03:01;12.97;;;10.60;;
850;SDS011;412;51.400;7.480;2023-04-06T04:05:27;14.70;;;12.17;;
850;SDS011;412;51.400;7.480;2023-04-06T04:07:53;13.68;;;11.10;;
850;SDS011;412;51.400;7.480;2023-04-06T04:10:20;13.40;;;11.73;;
850;SDS011;412;51.400;7.480;2023-04-06T04:12:46;14.37;;;12.10;;
850;SDS011;412;51.400;7.480;2023-04-06T04:15:12;14.50;;;11.37;;
850;SDS011;412;51.400;7.480;2023-04-06T04:17:37;15.43;;;13.43;;
850;SDS011;412;51.400;7.480;2023-04-06T04:20:03;14.50;;;12.50;;
850;SDS011;412;51.400;7.480;2023-04-06T04:22:29;16.58;;;12.20;;
850;SDS011;412;51.400;7.480;2023-04-06T04:24:55;14.03;;;11.60;;
850;SDS011;412;51.400;7.480;2023-04-06T04:27:21;14.37;;;12.17;;
850;SDS011;412;51.400;7.480;2023-04-06T04:29:47;14.10;;;12.00;;
850;SDS011;412;51.400;7.480;2023-04-06T04:32:13;13.10;;;11.80;;
850;SDS011;412;51.400;7.480;2023-04-06T04:34:38;16.30;;;13.70;;
850;SDS011;412;51.400;7.480;2023-04-06T04:37:07;15.95;;;13.38;;
850;SDS011;412;51.400;7.480;2023-04-06T04:39:32;14.20;;;11.33;;
850;SDS011;412;51.400;7.480;2023-04-06T04:41:58;15.13;;;12.43;;
850;SDS011;412;51.400;7.480;2023-04-06T04:44:24;18.37;;;12.90;;
850;SDS011;412;51.400;7.480;2023-04-06T04:46:50;15.90;;;12.80;;
850;SDS011;412;51.400;7.480;2023-04-06T04:49:16;17.17;;;13.15;;
850;SDS011;412;51.400;7.480;2023-04-06T04:51:42;21.30;;;14.40;;
850;SDS011;412;51.400;7.480;2023-04-06T04:54:08;20.10;;;13.20;;
850;SDS011;412;51.400;7.480;2023-04-06T04:56:33;18.50;;;16.23;;
850;SDS011;412;51.400;7.480;2023-04-06T04:58:59;18.43;;;13.63;;
850;SDS011;412;51.400;7.480;2023-04-06T05:01:25;16.40;;;12.30;;
850;SDS011;412;51.400;7.480;2023-04-06T05:03:51;18.27;;;16.50;;
850;SDS011;412;51.400;7.480;2023-04-06T05:06:17;16.97;;;14.60;;
850;SDS011;412;51.400;7.480;2023-04-06T05:08:44;16.07;;;14.53;;
850;SDS011;412;51.400;7.480;2023-04-06T05:11:09;17.83;;;15.93;;
850;SDS011;412;51.400;7.480;2023-04-06T05:13:35;17.07;;;14.53;;
850;SDS011;412;51.400;7.480;2023-04-06T05:16:01;20.30;;;15.40;;
850;SDS011;412;51.400;7.480;2023-04-06T05:18:27;19.47;;;16.90;;
850;SDS011;412;51.400;7.480;2023-04-06T05:20:53;16.43;;;13.77;;
850;SDS011;412;51.400;7.480;2023-04-06T05:23:19;18.10;;;16.30;;
850;SDS011;412;51.400;7.480;2023-04-06T05:25:45;18.38;;;15.30;;
850;SDS011;412;51.400;7.480;2023-04-06T05:28:10;18.83;;;16.07;;
850;SDS011;412;51.400;7.480;2023-04-06T05:30:39;15.63;;;14.03;;
850;SDS011;412;51.400;7.480;2023-04-06T05:33:05;17.90;;;16.10;;
850;SDS011;412;51.400;7.480;2023-04-06T05:35:31;17.30;;;14.57;;
850;SDS011;412;51.400;7.480;2023-04-06T05:37:57;17.30;;;14.00;;
850;SDS011;412;51.400;7.480;2023-04-06T05:40:22;19.70;;;17.00;;
850;SDS011;412;51.400;7.480;2023-04-06T05:42:48;19.13;;;13.73;;
850;SDS011;412;51.400;7.480;2023-04-06T05:45:14;17.10;;;13.23;;
850;SDS011;412;51.400;7.480;2023-04-06T05:47:43;18.60;;;14.00;;
850;SDS011;412;51.400;7.480;2023-04-06T05:50:10;19.13;;;16.40;;
850;SDS011;412;51.400;7.480;2023-04-06T05:52:37;17.03;;;14.30;;
850;SDS011;412;51.400;7.480;2023-04-06T05:55:03;17.37;;;15.80;;
850;SDS011;412;51.400;7.480;2023-04-06T05:57:29;16.30;;;13.30;;
850;SDS011;412;51.400;7.480;2023-04-06T05:59:55;16.10;;;12.37;;
850;SDS011;412;51.400;7.480;2023-04-06T06:02:21;20.60;;;13.83;;
850;SDS011;412;51.400;7.480;2023-04-06T06:04:47;17.30;;;14.70;;
850;SDS011;412;51.400;7.480;2023-04-06T06:07:14;20.10;;;14.90;;
850;SDS011;412;51.400;7.480;2023-04-06T06:09:40;18.27;;;14.83;;
850;SDS011;412;51.400;7.480;2023-04-06T06:12:06;25.70;;;14.50;;
850;SDS011;412;51.400;7.480;2023-04-06T06:14:32;18.07;;;14.93;;
850;SDS011;412;51.400;7.480;2023-04-06T06:16:58;16.23;;;13.43;;
850;SDS011;412;51.400;7.480;2023-04-06T06:19:24;18.03;;;14.80;;
850;SDS011;412;51.400;7.480;2023-04-06T06:21:49;17.57;;;14.40;;
850;SDS011;412;51.400;7.480;2023-04-06T06:24:15;18.93;;;15.23;;
850;SDS011;412;51.400;7.480;2023-04-06T06:26:41;21.97;;;15.60;;
850;SDS011;412;51.400;7.480;2023-04-06T06:29:08;18.33;;;13.80;;
850;SDS011;412;51.400;7.480;2023-04-06T06:31:34;17.93;;;14.00;;
850;SDS011;412;51.400;7.480;2023-04-06T06:34:00;16.53;;;14.10;;
850;SDS011;412;51.400;7.480;2023-04-06T06:36:27;21.30;;;15.13;;
850;SDS011;412;51.400;7.480;2023-04-06T06:38:56;15.03;;;13.10;;
850;SDS011;412;51.400;7.480;2023-04-06T06:41:23;20.67;;;15.80;;
850;SDS011;412;51.400;7.480;2023-04-06T06:43:51;19.30;;;15.27;;
850;SDS011;412;51.400;7.480;2023-04-06T06:46:17;17.70;;;14.50;;
850;SDS011;412;51.400;7.480;2023-04-06T06:48:42;24.00;;;13.47;;
850;SDS011;412;51.400;7.480;2023-04-06T06:51:08;18.37;;;14.70;;
850;SDS011;412;51.400;7.480;2023-04-06T06:53:36;15.50;;;12.47;;
850;SDS011;412;51.400;7.480;2023-04-06T06:56:02;22.10;;;12.90;;
850;SDS011;412;51.400;7.480;2023-04-06T06:58:28;17.77;;;14.63;;
850;SDS011;412;51.400;7.480;2023-04-06T07:00:57;19.80;;;15.47;;
850;SDS011;412;51.400;7.480;2023-04-06T07:03:24;24.97;;;13.20;;
850;SDS011;412;51.400;7.480;2023-04-06T07:05:50;18.67;;;11.80;;
850;SDS011;412;51.400;7.480;2023-04-06T07:08:31;13.90;;;12.50;;
850;SDS011;412;51.400;7.480;2023-04-06T07:11:06;15.90;;;12.27;;
850;SDS011;412;51.400;7.480;2023-04-06T07:13:32;12.43;;;11.07;;
850;SDS011;412;51.400;7.480;2023-04-06T07:15:58;12.80;;;11.03;;
850;SDS011;412;51.400;7.480;2023-04-06T07:18:24;12.37;;;9.80;;
850;SDS011;412;51.400;7.480;2023-04-06T07:20:50;9.00;;;8.10;;
850;SDS011;412;51.400;7.480;2023-04-06T07:23:16;10.03;;;8.17;;
850;SDS011;412;51.400;7.480;2023-04-06T07:25:44;10.20;;;9.03;;
850;SDS011;412;51.400;7.480;2023-04-06T07:28:10;11.63;;;9.47;;
850;SDS011;412;51.400;7.480;2023-04-06T07:30:37;8.30;;;7.50;;
850;SDS011;412;51.400;7.480;2023-04-06T07:33:03;9.07;;;8.17;;
850;SDS011;412;51.400;7.480;2023-04-06T07:35:30;9.47;;;8.33;;
850;SDS011;412;51.400;7.480;2023-04-06T07:37:56;12.00;;;7.43;;
850;SDS011;412;51.400;7.480;2023-04-06T07:40:22;8.83;;;7.93;;
850;SDS011;412;51.400;7.480;2023-04-06T07:42:48;9.50;;;7.90;;
850;SDS011;412;51.400;7.480;2023-04-06T07:45:14;9.47;;;8.57;;
850;SDS011;412;51.400;7.480;2023-04-06T07:47:41;11.40;;;8.37;;
850;SDS011;412;51.400;7.480;2023-04-06T07:50:07;8.83;;;8.00;;
850;SDS011;412;51.400;7.480;2023-04-06T07:52:33;9.03;;;8.07;;
850;SDS011;412;51.400;7.480;2023-04-06T07:54:59;9.17;;;8.27;;
850;SDS011;412;51.400;7.480;2023-04-06T07:57:25;10.93;;;8.30;;
850;SDS011;412;51.400;7.480;2023-04-06T07:59:50;9.33;;;7.90;;
850;SDS011;412;51.400;7.480;2023-04-06T08:02:16;11.57;;;10.37;;
850;SDS011;412;51.400;7.480;2023-04-06T08:04:43;9.33;;;7.83;;
850;SDS011;412;51.400;7.480;2023-04-06T08:07:09;10.60;;;8.87;;
850;SDS011;412;51.400;7.480;2023-04-06T08:09:35;9.63;;;8.73;;
850;SDS011;412;51.400;7.480;2023-04-06T08:12:01;12.40;;;11.20;;
850;SDS011;412;51.400;7.480;2023-04-06T08:14:26;9.57;;;8.53;;
850;SDS011;412;51.400;7.480;2023-04-06T08:16:52;10.77;;;9.87;;
850;SDS011;412;51.400;7.480;2023-04-06T08:19:18;10.10;;;9.07;;
850;SDS011;412;51.400;7.480;2023-04-06T08:21:44;11.20;;;8.20;;
850;SDS011;412;51.400;7.480;2023-04-06T08:24:13;12.10;;;10.03;;
850;SDS011;412;51.400;7.480;2023-04-06T08:26:40;13.07;;;9.80;;
850;SDS011;412;51.400;7.480;2023-04-06T08:29:06;9.80;;;8.80;;
850;SDS011;412;51.400;7.480;2023-04-06T08:31:35;10.33;;;9.40;;
850;SDS011;412;51.400;7.480;2023-04-06T08:34:02;9.40;;;8.40;;
850;SDS011;412;51.400;7.480;2023-04-06T08:36:29;10.93;;;9.83;;
850;SDS011;412;51.400;7.480;2023-04-06T08:38:55;12.83;;;11.60;;
850;SDS011;412;51.400;7.480;2023-04-06T08:41:20;12.23;;;11.03;;
850;SDS011;412;51.400;7.480;2023-04-06T08:43:47;11.17;;;9.97;;
850;SDS011;412;51.400;7.480;2023-04-06T08:46:21;10.37;;;9.37;;
850;SDS011;412;51.400;7.480;2023-04-06T08:48:48;14.90;;;13.70;;
850;SDS011;412;51.400;7.480;2023-04-06T08:51:15;16.47;;;10.13;;
850;SDS011;412;51.400;7.480;2023-04-06T08:53:41;11.60;;;9.20;;
850;SDS011;412;51.400;7.480;2023-04-06T08:56:06;11.23;;;10.10;;
850;SDS011;412;51.400;7.480;2023-04-06T08:58:35;13.37;;;10.87;;
850;SDS011;412;51.400;7.480;2023-04-06T09:01:08;11.70;;;10.60;;
850;SDS011;412;51.400;7.480;2023-04-06T09:03:39;13.27;;;9.70;;
850;SDS011;412;51.400;7.480;2023-04-06T09:06:06;13.07;;;11.77;;
850;SDS011;412;51.400;7.480;2023-04-06T09:08:35;10.20;;;9.20;;
850;SDS011;412;51.400;7.480;2023-04-06T09:11:03;11.40;;;10.20;;
850;SDS011;412;51.400;7.480;2023-04-06T09:13:30;13.60;;;10.27;;
850;SDS011;412;51.400;7.480;2023-04-06T09:16:02;10.57;;;9.47;;
850;SDS011;412;51.400;7.480;2023-04-06T09:18:31;11.50;;;10.30;;
850;SDS011;412;51.400;7.480;2023-04-06T09:21:00;12.10;;;10.70;;
850;SDS011;412;51.400;7.480;2023-04-06T09:23:30;14.20;;;11.10;;
850;SDS011;412;51.400;7.480;2023-04-06T09:28:45;13.90;;;10.50;;
850;SDS011;412;51.400;7.480;2023-04-06T09:31:16;11.40;;;9.57;;
850;SDS011;412;51.400;7.480;2023-04-06T09:33:47;13.17;;;11.97;;
850;SDS011;412;51.400;7.480;2023-04-06T09:36:13;12.73;;;11.07;;
850;SDS011;412;51.400;7.480;2023-04-06T09:38:53;11.00;;;9.90;;
850;SDS011;412;51.400;7.480;2023-04-06T09:44:03;12.23;;;10.97;;
850;SDS011;412;51.400;7.480;2023-04-06T09:46:31;12.60;;;11.30;;
850;SDS011;412;51.400;7.480;2023-04-06T09:48:59;15.47;;;11.00;;
850;SDS011;412;51.400;7.480;2023-04-06T09:51:30;12.13;;;10.20;;
850;SDS011;412;51.400;7.480;2023-04-06T09:53:58;15.90;;;13.60;;
850;SDS011;412;51.400;7.480;2023-04-06T09:56:28;14.90;;;13.37;;
850;SDS011;412;51.400;7.480;2023-04-06T09:59:01;19.10;;;14.30;;
850;SDS011;412;51.400;7.480;2023-04-06T10:01:30;16.17;;;12.97;;
850;SDS011;412;51.400;7.480;2023-04-06T10:06:45;17.00;;;14.83;;
850;SDS011;412;51.400;7.480;2023-04-06T10:09:17;17.70;;;13.00;;
850;SDS011;412;51.400;7.480;2023-04-06T10:11:43;17.20;;;13.50;;
850;SDS011;412;51.400;7.480;2023-04-06T10:14:09;16.93;;;12.87;;
850;SDS011;412;51.400;7.480;2023-04-06T10:16:36;17.33;;;13.77;;
850;SDS011;412;51.400;7.480;2023-04-06T10:19:06;16.50;;;13.10;;
850;SDS011;412;51.400;7.480;2023-04-06T10:21:38;18.03;;;14.90;;
850;SDS011;412;51.400;7.480;2023-04-06T10:24:07;17.67;;;14.60;;
850;SDS011;412;51.400;7.480;2023-04-06T10:26:36;21.17;;;14.37;;
850;SDS011;412;51.400;7.480;2023-04-06T10:29:04;19.33;;;14.97;;
850;SDS011;412;51.400;7.480;2023-04-06T10:31:31;16.00;;;13.80;;
850;SDS011;412;51.400;7.480;2023-04-06T10:33:58;17.80;;;13.90;;
850;SDS011;412;51.400;7.480;2023-04-06T10:36:31;20.27;;;15.83;;
850;SDS011;412;51.400;7.480;2023-04-06T10:38:59;18.93;;;14.63;;
850;SDS011;412;51.400;7.480;2023-04-06T10:41:34;17.50;;;13.47;;
850;SDS011;412;51.400;7.480;2023-04-06T10:44:01;19.17;;;14.47;;
850;SDS011;412;51.400;7.480;2023-04-06T10:46:30;17.00;;;15.07;;
850;SDS011;412;51.400;7.480;2023-04-06T10:48:58;20.13;;;14.83;;
850;SDS011;412;51.400;7.480;2023-04-06T10:51:37;17.77;;;15.87;;
850;SDS011;412;51.400;7.480;2023-04-06T10:54:03;17.87;;;14.27;;
850;SDS011;412;51.400;7.480;2023-04-06T10:56:31;19.43;;;15.80;;
850;SDS011;412;51.400;7.480;2023-04-06T10:59:01;24.10;;;14.87;;
850;SDS011;412;51.400;7.480;2023-04-06T11:01:27;17.10;;;14.43;;
850;SDS011;412;51.400;7.480;2023-04-06T11:03:54;19.13;;;15.93;;
850;SDS011;412;51.400;7.480;2023-04-06T11:06:21;17.93;;;15.27;;
850;SDS011;412;51.400;7.480;2023-04-06T11:08:48;18.70;;;14.83;;
850;SDS011;412;51.400;7.480;2023-04-06T11:11:16;17.10;;;13.30;;
850;SDS011;412;51.400;7.480;2023-04-06T11:13:53;16.80;;;13.97;;
850;SDS011;412;51.400;7.480;2023-04-06T11:16:21;17.70;;;15.87;;
850;SDS011;412;51.400;7.480;2023-04-06T11:18:59;17.47;;;14.40;;
850;SDS011;412;51.400;7.480;2023-04-06T11:21:33;17.20;;;14.20;;
850;SDS011;412;51.400;7.480;2023-04-06T11:24:10;17.80;;;14.60;;
850;SDS011;412;51.400;7.480;2023-04-06T11:26:38;17.50;;;14.20;;
850;SDS011;412;51.400;7.480;2023-04-06T11:29:05;19.50;;;14.50;;
850;SDS011;412;51.400;7.480;2023-04-06T11:31:31;18.53;;;14.60;;
850;SDS011;412;51.400;7.480;2023-04-06T11:34:08;19.77;;;14.00;;
850;SDS011;412;51.400;7.480;2023-04-06T11:36:35;17.70;;;14.40;;
850;SDS011;412;51.400;7.480;2023-04-06T11:39:02;18.03;;;14.80;;
850;SDS011;412;51.400;7.480;2023-04-06T11:41:28;19.83;;;14.80;;
850;SDS011;412;51.400;7.480;2023-04-06T11:43:55;17.40;;;14.90;;
850;SDS011;412;51.400;7.480;2023-04-06T11:46:21;17.90;;;14.47;;
850;SDS011;412;51.400;7.480;2023-04-06T11:48:47;18.50;;;14.70;;
850;SDS011;412;51.400;7.480;2023-04-06T11:51:20;19.70;;;14.93;;
850;SDS011;412;51.400;7.480;2023-04-06T11:53:48;21.43;;;15.67;;
850;SDS011;412;51.400;7.480;2023-04-06T11:56:23;19.73;;;15.33;;
850;SDS011;412;51.400;7.480;2023-04-06T11:58:54;22.00;;;17.17;;
850;SDS011;412;51.400;7.480;2023-04-06T12:01:21;21.77;;;16.23;;
850;SDS011;412;51.400;7.480;2023-04-06T12:03:47;18.47;;;14.70;;
850;SDS011;412;51.400;7.480;2023-04-06T12:06:13;18.00;;;15.43;;
850;SDS011;412;51.400;7.480;2023-04-06T12:08:39;21.57;;;15.50;;
850;SDS011;412;51.400;7.480;2023-04-06T12:11:05;19.17;;;16.10;;
850;SDS011;412;51.400;7.480;2023-04-06T12:13:31;16.00;;;14.30;;
850;SDS011;412;51.400;7.480;2023-04-06T12:15:57;16.70;;;14.93;;
850;SDS011;412;51.400;7.480;2023-04-06T12:18:23;16.03;;;14.33;;
850;SDS011;412;51.400;7.480;2023-04-06T12:20:48;15.17;;;13.00;;
850;SDS011;412;51.400;7.480;2023-04-06T12:23:14;16.13;;;14.50;;
850;SDS011;412;51.400;7.480;2023-04-06T12:25:41;16.30;;;13.07;;
850;SDS011;412;51.400;7.480;2023-04-06T12:28:08;16.50;;;14.90;;
850;SDS011;412;51.400;7.480;2023-04-06T12:30:36;14.77;;;13.00;;
850;SDS011;412;51.400;7.480;2023-04-06T12:33:02;15.77;;;14.10;;
850;SDS011;412;51.400;7.480;2023-04-06T12:35:28;16.27;;;13.70;;
850;SDS011;412;51.400;7.480;2023-04-06T12:37:58;17.50;;;12.53;;
850;SDS011;412;51.400;7.480;2023-04-06T12:40:24;13.07;;;11.77;;
850;SDS011;412;51.400;7.480;2023-04-06T12:42:49;14.07;;;12.40;;
850;SDS011;412;51.400;7.480;2023-04-06T12:45:15;14.80;;;13.30;;
850;SDS011;412;51.400;7.480;2023-04-06T12:47:41;14.33;;;12.13;;
850;SDS011;412;51.400;7.480;2023-04-06T12:50:07;15.03;;;13.53;;
850;SDS011;412;51.400;7.480;2023-04-06T12:52:33;12.87;;;11.53;;
850;SDS011;412;51.400;7.480;2023-04-06T12:55:01;15.37;;;14.03;;
850;SDS011;412;51.400;7.480;2023-04-06T12:57:28;12.57;;;11.13;;
850;SDS011;412;51.400;7.480;2023-04-06T12:59:54;15.27;;;13.73;;
850;SDS011;412;51.400;7.480;2023-04-06T13:02:22;15.50;;;12.37;;
850;SDS011;412;51.400;7.480;2023-04-06T13:04:48;12.30;;;11.10;;
850;SDS011;412;51.400;7.480;2023-04-06T13:07:14;16.37;;;14.77;;
850;SDS011;412;51.400;7.480;2023-04-06T13:09:40;13.70;;;11.70;;
850;SDS011;412;51.400;7.480;2023-04-06T13:12:06;14.63;;;13.23;;
850;SDS011;412;51.400;7.480;2023-04-06T13:14:32;13.87;;;12.37;;
850;SDS011;412;51.400;7.480;2023-04-06T13:16:57;14.20;;;12.80;;
850;SDS011;412;51.400;7.480;2023-04-06T13:19:23;13.47;;;11.87;;
850;SDS011;412;51.400;7.480;2023-04-06T13:21:50;13.07;;;11.77;;
850;SDS011;412;51.400;7.480;2023-04-06T13:24:16;13.47;;;12.10;;
850;SDS011;412;51.400;7.480;2023-04-06T13:26:42;13.60;;;12.20;;
850;SDS011;412;51.400;7.480;2023-04-06T13:29:07;13.57;;;11.97;;
850;SDS011;412;51.400;7.480;2023-04-06T13:31:33;12.87;;;11.10;;
850;SDS011;412;51.400;7.480;2023-04-06T13:33:59;13.07;;;11.50;;
850;SDS011;412;51.400;7.480;2023-04-06T13:36:25;14.37;;;12.33;;
850;SDS011;412;51.400;7.480;2023-04-06T13:38:51;13.40;;;11.37;;
850;SDS011;412;51.400;7.480;2023-04-06T13:41:19;13.50;;;12.10;;
850;SDS011;412;51.400;7.480;2023-04-06T13:43:46;13.93;;;12.27;;
850;SDS011;412;51.400;7.480;2023-04-06T13:46:12;12.87;;;11.57;;
850;SDS011;412;51.400;7.480;2023-04-06T13:48:38;13.10;;;11.80;;
850;SDS011;412;51.400;7.480;2023-04-06T13:51:10;14.00;;;10.80;;
850;SDS011;412;51.400;7.480;2023-04-06T13:53:40;11.33;;;10.23;;
850;SDS011;412;51.400;7.480;2023-04-06T13:56:06;11.93;;;10.83;;
850;SDS011;412;51.400;7.480;2023-04-06T13:58:32;10.80;;;9.70;;
850;SDS011;412;51.400;7.480;2023-04-06T14:01:06;9.67;;;8.77;;
850;SDS011;412;51.400;7.480;2023-04-06T14:03:32;10.67;;;9.63;;
850;SDS011;412;51.400;7.480;2023-04-06T14:05:58;10.47;;;9.53;;
850;SDS011;412;51.400;7.480;2023-04-06T14:08:24;8.07;;;7.37;;
850;SDS011;412;51.400;7.480;2023-04-06T14:10:50;7.80;;;6.60;;
850;SDS011;412;51.400;7.480;2023-04-06T14:13:16;7.60;;;6.90;;
850;SDS011;412;51.400;7.480;2023-04-06T14:15:42;8.77;;;7.97;;
850;SDS011;412;51.400;7.480;2023-04-06T14:18:08;9.40;;;8.50;;
850;SDS011;412;51.400;7.480;2023-04-06T14:20:33;9.37;;;8.47;;
850;SDS011;412;51.400;7.480;2023-04-06T14:23:00;10.70;;;9.70;;
850;SDS011;412;51.400;7.480;2023-04-06T14:25:26;12.00;;;9.70;;
850;SDS011;412;51.400;7.480;2023-04-06T14:27:53;10.93;;;9.43;;
850;SDS011;412;51.400;7.480;2023-04-06T14:30:18;12.17;;;9.80;;
850;SDS011;412;51.400;7.480;2023-04-06T14:32:44;11.90;;;10.70;;
850;SDS011;412;51.400;7.480;2023-04-06T14:35:10;12.00;;;10.77;;
850;SDS011;412;51.400;7.480;2023-04-06T14:37:36;13.17;;;10.83;;
850;SDS011;412;51.400;7.480;2023-04-06T14:40:02;11.57;;;10.37;;
850;SDS011;412;51.400;7.480;2023-04-06T14:42:29;11.63;;;10.60;;
850;SDS011;412;51.400;7.480;2023-04-06T14:44:54;13.87;;;11.57;;
850;SDS011;412;51.400;7.480;2023-04-06T14:47:20;12.10;;;10.43;;
850;SDS011;412;51.400;7.480;2023-04-06T14:49:50;11.87;;;10.70;;
850;SDS011;412;51.400;7.480;2023-04-06T14:52:17;10.73;;;9.70;;
850;SDS011;412;51.400;7.480;2023-04-06T14:54:42;11.33;;;10.07;;
850;SDS011;412;51.400;7.480;2023-04-06T14:57:08;10.53;;;9.37;;
850;SDS011;412;51.400;7.480;2023-04-06T14:59:34;11.43;;;9.60;;
850;SDS011;412;51.400;7.480;2023-04-06T15:02:01;11.20;;;10.20;;
850;SDS011;412;51.400;7.480;2023-04-06T15:04:28;12.70;;;11.43;;
850;SDS011;412;51.400;7.480;2023-04-06T15:06:55;12.60;;;11.30;;
850;SDS011;412;51.400;7.480;2023-04-06T15:09:21;12.97;;;11.60;;
850;SDS011;412;51.400;7.480;2023-04-06T15:11:47;11.37;;;10.23;;
850;SDS011;412;51.400;7.480;2023-04-06T15:14:12;13.60;;;12.30;;
850;SDS011;412;51.400;7.480;2023-04-06T15:16:38;11.43;;;10.40;;
850;SDS011;412;51.400;7.480;2023-04-06T15:19:05;12.53;;;11.33;;
850;SDS011;412;51.400;7.480;2023-04-06T15:21:30;11.53;;;10.43;;
850;SDS011;412;51.400;7.480;2023-04-06T15:23:57;11.50;;;10.00;;
850;SDS011;412;51.400;7.480;2023-04-06T15:26:23;12.07;;;10.77;;